Time;durP1;ratioP1;P1;durP2;ratioP2;P2;SDS_P1;SDS_P2;PMS_P1;PMS_P2;Temp;Humidity;BMP_temperature;BMP_pressure;BME280_temperature;BME280_humidity;BME280_pressure;Samples;Min_cycle;Max_cycle;Signal;HPM_P1;HPM_P2
2022/07/05 00:00:48;;;;;;;3.60;2.80;;;16.20;99.90;;;;;;5060863;28;20641;-83
2022/07/05 00:03:13;;;;;;;2.93;2.60;;;16.20;99.90;;;;;;5059697;28;20196;-83
2022/07/05 00:05:39;;;;;;;3.13;2.83;;;16.20;99.90;;;;;;5061493;28;20216;-83
2022/07/05 00:08:05;;;;;;;3.47;2.70;;;16.30;99.90;;;;;;5059218;28;20303;-83
2022/07/05 00:10:37;;;;;;;4.53;2.83;;;16.50;99.90;;;;;;5056885;28;20183;-83
2022/07/05 00:13:03;;;;;;;7.63;2.90;;;16.60;99.90;;;;;;5059631;28;20223;-83
2022/07/05 00:15:28;;;;;;;4.20;2.87;;;16.30;99.90;;;;;;5061734;28;20183;-83
2022/07/05 00:17:54;;;;;;;5.30;3.37;;;16.40;99.90;;;;;;5059060;28;20244;-83
2022/07/05 00:20:20;;;;;;;4.73;3.10;;;16.50;99.90;;;;;;5058491;28;20548;-83
2022/07/05 00:22:45;;;;;;;5.63;2.90;;;16.50;99.90;;;;;;5059889;28;20264;-83
2022/07/05 00:25:11;;;;;;;6.80;3.23;;;16.60;99.90;;;;;;5060265;28;20579;-83
2022/07/05 00:27:36;;;;;;;5.07;2.93;;;16.70;99.90;;;;;;5059083;28;20264;-83
2022/07/05 00:30:04;;;;;;;3.23;2.77;;;16.60;99.90;;;;;;5060593;28;20173;-83
2022/07/05 00:32:29;;;;;;;6.53;3.40;;;16.70;99.90;;;;;;5058329;28;20280;-83
2022/07/05 00:34:55;;;;;;;7.13;2.80;;;16.60;99.90;;;;;;5062629;28;20713;-83
2022/07/05 00:37:20;;;;;;;3.13;2.93;;;16.50;99.90;;;;;;5060764;28;20227;-82
2022/07/05 00:39:46;;;;;;;5.57;3.20;;;16.40;99.90;;;;;;5063054;28;20169;-83
2022/07/05 00:42:12;;;;;;;4.63;3.40;;;16.40;99.90;;;;;;5060441;28;20193;-83
2022/07/05 00:44:41;;;;;;;3.87;2.97;;;16.40;99.90;;;;;;5060136;28;20227;-83
2022/07/05 00:47:09;;;;;;;4.33;3.03;;;16.50;99.90;;;;;;5061871;28;20169;-83
2022/07/05 00:49:35;;;;;;;5.43;3.00;;;16.50;99.90;;;;;;5060629;28;20219;-83
2022/07/05 00:52:01;;;;;;;3.30;3.00;;;16.50;99.90;;;;;;5058982;28;20706;-83
2022/07/05 00:54:28;;;;;;;6.13;3.00;;;16.50;99.90;;;;;;5061806;28;20161;-83
2022/07/05 00:56:54;;;;;;;3.33;2.53;;;16.40;99.90;;;;;;5060483;28;20178;-83
2022/07/05 00:59:20;;;;;;;4.60;3.00;;;16.40;99.90;;;;;;5060175;28;20574;-83
2022/07/05 01:01:46;;;;;;;4.07;2.87;;;16.40;99.90;;;;;;5060095;28;20203;-83
2022/07/05 01:04:12;;;;;;;3.40;2.90;;;16.30;99.90;;;;;;5060510;28;20230;-83
2022/07/05 01:06:39;;;;;;;3.73;2.90;;;16.30;99.90;;;;;;5062746;28;20191;-83
2022/07/05 01:09:05;;;;;;;7.03;2.87;;;16.20;99.90;;;;;;5060800;28;20382;-83
2022/07/05 01:11:31;;;;;;;3.27;2.90;;;16.20;99.90;;;;;;5059705;28;20544;-83
2022/07/05 01:13:59;;;;;;;5.57;3.23;;;16.30;99.90;;;;;;5059982;28;20193;-83
2022/07/05 01:16:25;;;;;;;8.50;2.80;;;16.00;99.90;;;;;;5060069;28;20210;-83
2022/07/05 01:18:51;;;;;;;3.57;2.80;;;15.90;99.90;;;;;;5061144;28;20181;-83
2022/07/05 01:21:19;;;;;;;5.60;2.90;;;15.80;99.90;;;;;;5061082;28;20248;-83
2022/07/05 01:23:45;;;;;;;3.73;2.70;;;15.90;99.90;;;;;;5059536;28;20174;-83
2022/07/05 01:26:11;;;;;;;4.23;2.60;;;15.60;99.90;;;;;;5061422;28;20602;-83
2022/07/05 01:28:37;;;;;;;8.07;2.90;;;15.80;99.90;;;;;;5059710;28;20197;-83
2022/07/05 01:31:02;;;;;;;4.67;2.70;;;15.80;99.90;;;;;;5060670;28;20183;-83
2022/07/05 01:33:29;;;;;;;4.00;2.87;;;16.00;99.90;;;;;;5061334;28;20255;-83
2022/07/05 01:35:56;;;;;;;5.13;2.60;;;15.90;99.90;;;;;;5061404;28;20169;-83
2022/07/05 01:38:22;;;;;;;5.77;2.47;;;15.90;99.90;;;;;;5060238;28;20235;-83
2022/07/05 01:40:51;;;;;;;3.47;3.10;;;15.60;99.90;;;;;;5062461;28;20177;-83
2022/07/05 01:43:20;;;;;;;3.43;2.80;;;15.80;99.90;;;;;;5060497;28;20787;-83
2022/07/05 01:45:47;;;;;;;5.20;2.70;;;16.00;99.90;;;;;;5061488;28;20174;-83
2022/07/05 01:48:16;;;;;;;5.27;2.97;;;15.80;99.90;;;;;;5062975;28;20209;-83
2022/07/05 01:51:05;;;;;;;4.23;2.63;;;15.80;99.90;;;;;;5064261;28;20181;-83
2022/07/05 01:53:32;;;;;;;4.90;3.00;;;15.60;99.90;;;;;;5062803;28;20273;-83
2022/07/05 01:56:02;;;;;;;5.53;2.87;;;15.50;99.90;;;;;;5063227;28;20177;-83
2022/07/05 01:58:29;;;;;;;5.47;3.20;;;15.60;99.90;;;;;;5061537;28;20589;-83
2022/07/05 02:00:56;;;;;;;8.50;3.07;;;15.60;99.90;;;;;;5062230;28;20264;-83
2022/07/05 02:03:23;;;;;;;4.93;3.30;;;15.50;99.90;;;;;;5059976;28;20278;-83
2022/07/05 02:05:49;;;;;;;6.77;2.73;;;15.30;99.90;;;;;;5064032;28;20184;-83
2022/07/05 02:08:17;;;;;;;3.80;2.97;;;15.30;99.90;;;;;;5062147;28;20292;-83
2022/07/05 02:10:43;;;;;;;3.27;2.97;;;15.30;99.90;;;;;;5059358;28;20189;-83
2022/07/05 02:13:09;;;;;;;3.50;2.80;;;15.40;99.90;;;;;;5059149;28;20193;-83
2022/07/05 02:15:37;;;;;;;4.47;3.37;;;15.40;99.90;;;;;;5059614;28;20177;-83
2022/07/05 02:18:03;;;;;;;3.57;2.80;;;15.20;99.90;;;;;;5061362;28;20448;-83
2022/07/05 02:20:30;;;;;;;6.37;2.73;;;15.10;99.90;;;;;;5058198;28;20178;-83
2022/07/05 02:22:56;;;;;;;4.30;2.60;;;15.00;99.90;;;;;;5061089;28;20197;-83
2022/07/05 02:25:21;;;;;;;3.77;2.63;;;15.10;99.90;;;;;;5063471;28;20173;-83
2022/07/05 02:27:48;;;;;;;3.50;3.20;;;15.00;99.90;;;;;;5061282;28;20189;-83
2022/07/05 02:30:14;;;;;;;4.97;2.70;;;15.10;99.90;;;;;;5063551;28;20226;-83
2022/07/05 02:32:40;;;;;;;4.27;2.60;;;15.00;99.90;;;;;;5057536;28;20193;-83
2022/07/05 02:35:07;;;;;;;4.87;2.97;;;15.10;99.90;;;;;;5061376;28;20194;-83
2022/07/05 02:37:33;;;;;;;4.03;2.53;;;15.10;99.90;;;;;;5058807;28;20185;-83
2022/07/05 02:39:59;;;;;;;4.63;2.67;;;15.10;99.90;;;;;;5060511;28;20192;-83
2022/07/05 02:42:24;;;;;;;4.60;2.77;;;15.30;99.90;;;;;;5060892;28;20207;-83
2022/07/05 02:44:50;;;;;;;3.40;2.57;;;15.40;99.90;;;;;;5061896;28;20177;-83
2022/07/05 02:47:15;;;;;;;5.07;2.63;;;15.20;99.90;;;;;;5059260;28;20520;-83
2022/07/05 02:49:41;;;;;;;5.80;2.93;;;15.00;99.90;;;;;;5061094;28;20742;-83
2022/07/05 02:52:06;;;;;;;6.03;3.07;;;15.00;99.90;;;;;;5058986;28;20275;-83
2022/07/05 02:54:33;;;;;;;2.67;2.47;;;15.10;99.90;;;;;;5061771;28;20177;-83
2022/07/05 02:56:59;;;;;;;4.30;2.87;;;15.10;99.90;;;;;;5059750;28;20166;-83
2022/07/05 02:59:24;;;;;;;7.00;2.80;;;15.10;99.90;;;;;;5061301;28;20249;-83
2022/07/05 03:01:50;;;;;;;3.70;3.00;;;15.00;99.90;;;;;;5062225;28;20686;-83
2022/07/05 03:04:15;;;;;;;6.57;3.00;;;15.10;99.90;;;;;;5066197;28;20193;-83
2022/07/05 03:06:41;;;;;;;5.70;2.87;;;15.20;99.90;;;;;;5062131;28;20211;-83
2022/07/05 03:09:07;;;;;;;3.50;2.73;;;15.10;99.90;;;;;;5065392;28;20614;-83
2022/07/05 03:11:32;;;;;;;6.27;2.70;;;15.00;99.90;;;;;;5062234;28;20225;-83
2022/07/05 03:13:58;;;;;;;6.33;3.00;;;14.90;99.90;;;;;;5061663;28;20196;-83
2022/07/05 03:16:24;;;;;;;3.23;2.80;;;14.90;99.90;;;;;;5062640;28;20201;-83
2022/07/05 03:18:50;;;;;;;5.60;3.33;;;14.80;99.90;;;;;;5059622;28;20173;-83
2022/07/05 03:21:15;;;;;;;5.03;3.00;;;14.70;99.90;;;;;;5058189;28;20180;-83
2022/07/05 03:23:41;;;;;;;7.00;3.03;;;14.80;99.90;;;;;;5059625;28;20174;-83
2022/07/05 03:26:07;;;;;;;3.43;3.13;;;15.00;99.90;;;;;;5063050;28;20196;-83
2022/07/05 03:28:32;;;;;;;6.13;3.00;;;15.00;99.90;;;;;;5059154;28;20206;-83
2022/07/05 03:30:58;;;;;;;3.97;3.00;;;15.20;99.90;;;;;;5055021;28;20184;-83
2022/07/05 03:33:24;;;;;;;5.33;2.60;;;15.10;99.90;;;;;;5054198;28;20239;-83
2022/07/05 03:35:49;;;;;;;4.07;3.10;;;14.90;99.90;;;;;;5054440;28;20169;-83
2022/07/05 03:38:15;;;;;;;5.00;3.03;;;14.70;99.90;;;;;;5056827;28;20173;-83
2022/07/05 03:40:40;;;;;;;5.77;3.20;;;14.70;99.90;;;;;;5055760;28;20173;-83
2022/07/05 03:43:06;;;;;;;4.70;3.20;;;14.70;99.90;;;;;;5052278;28;20195;-83
2022/07/05 03:45:31;;;;;;;7.93;4.27;;;14.70;99.90;;;;;;5054304;28;20583;-83
2022/07/05 03:47:58;;;;;;;5.10;3.13;;;14.80;99.90;;;;;;5054978;28;20256;-83
2022/07/05 03:50:24;;;;;;;4.30;2.73;;;14.70;99.90;;;;;;5053214;28;20169;-83
2022/07/05 03:52:49;;;;;;;4.73;3.00;;;14.90;99.90;;;;;;5053875;28;20276;-83
2022/07/05 03:55:14;;;;;;;7.33;3.40;;;14.90;99.90;;;;;;5053536;28;20221;-82
2022/07/05 03:57:40;;;;;;;5.77;2.80;;;15.00;99.90;;;;;;5053577;28;20166;-83
2022/07/05 04:00:07;;;;;;;3.23;2.90;;;14.90;99.90;;;;;;5054988;28;20192;-83
2022/07/05 04:02:32;;;;;;;4.43;3.37;;;14.80;99.90;;;;;;5054774;28;20181;-83
2022/07/05 04:04:58;;;;;;;6.90;3.50;;;14.70;99.90;;;;;;5054990;28;20173;-82
2022/07/05 04:07:23;;;;;;;3.77;2.87;;;14.60;99.90;;;;;;5054975;28;20166;-82
2022/07/05 04:09:49;;;;;;;5.93;3.40;;;14.70;99.90;;;;;;5053158;28;20677;-83
2022/07/05 04:12:14;;;;;;;8.73;3.60;;;14.80;99.90;;;;;;5053840;28;20198;-83
2022/07/05 04:14:40;;;;;;;4.77;2.90;;;14.70;99.90;;;;;;5054489;28;20189;-83
2022/07/05 04:17:05;;;;;;;6.37;3.70;;;14.60;99.90;;;;;;5054604;28;20226;-83
2022/07/05 04:19:31;;;;;;;5.27;3.07;;;14.50;99.90;;;;;;5053063;28;20181;-83
2022/07/05 04:21:56;;;;;;;6.20;3.27;;;14.40;99.90;;;;;;5054472;28;20266;-83
2022/07/05 04:24:22;;;;;;;5.30;3.13;;;14.50;99.90;;;;;;5054505;28;20647;-83
2022/07/05 04:26:47;;;;;;;3.57;3.00;;;14.60;99.90;;;;;;5054140;28;20172;-83
2022/07/05 04:29:13;;;;;;;3.80;2.80;;;14.70;99.90;;;;;;5054494;28;20263;-83
2022/07/05 04:31:38;;;;;;;4.77;2.60;;;14.70;99.90;;;;;;5053981;28;20197;-83
2022/07/05 04:34:04;;;;;;;4.00;2.67;;;14.80;99.90;;;;;;5058924;28;20241;-83
2022/07/05 04:36:29;;;;;;;4.23;2.80;;;15.10;99.90;;;;;;5057210;28;20177;-83
2022/07/05 04:38:55;;;;;;;3.93;2.30;;;15.40;99.90;;;;;;5054016;28;20338;-83
2022/07/05 04:41:21;;;;;;;5.00;2.47;;;15.70;99.90;;;;;;5055424;28;20177;-83
2022/07/05 04:43:46;;;;;;;5.60;2.63;;;16.10;99.90;;;;;;5057261;28;20173;-83
2022/07/05 04:46:12;;;;;;;5.60;2.20;;;16.80;99.90;;;;;;5058586;28;20268;-83
2022/07/05 04:48:37;;;;;;;5.50;2.30;;;17.10;99.90;;;;;;5059627;28;20221;-83
2022/07/05 04:51:03;;;;;;;3.93;2.20;;;17.20;99.90;;;;;;5058439;28;20204;-83
2022/07/05 04:53:28;;;;;;;4.97;2.53;;;17.40;99.90;;;;;;5059075;28;20219;-83
2022/07/05 04:55:54;;;;;;;2.57;2.37;;;17.70;99.90;;;;;;5063938;28;20629;-83
2022/07/05 04:58:19;;;;;;;3.75;1.80;;;17.80;99.90;;;;;;5060816;28;20665;-83
2022/07/05 05:00:45;;;;;;;4.10;2.25;;;17.80;99.90;;;;;;5060729;28;20653;-84
2022/07/05 05:03:10;;;;;;;2.22;2.03;;;18.10;99.90;;;;;;5061063;28;20197;-83
2022/07/05 05:05:36;;;;;;;5.88;2.28;;;18.40;99.90;;;;;;5058262;28;20173;-83
2022/07/05 05:08:01;;;;;;;2.92;2.28;;;17.90;99.90;;;;;;5054861;28;20209;-83
2022/07/05 05:10:27;;;;;;;2.47;2.08;;;18.00;99.90;;;;;;5057931;28;20260;-83
2022/07/05 05:12:52;;;;;;;3.17;2.05;;;18.10;99.90;;;;;;5056444;28;20224;-83
2022/07/05 05:15:18;;;;;;;6.45;2.53;;;18.20;99.90;;;;;;5097185;22;20642;-78
2022/07/05 05:17:44;;;;;;;4.57;2.47;;;18.00;99.90;;;;;;5075748;28;20194;-79
2022/07/05 05:20:15;;;;;;;6.22;2.45;;;17.80;99.90;;;;;;5075787;28;20172;-77
2022/07/05 05:22:42;;;;;;;4.05;2.13;;;18.10;99.90;;;;;;5077095;28;20222;-77
2022/07/05 05:25:09;;;;;;;2.17;2.05;;;18.20;99.90;;;;;;5076209;28;20175;-79
2022/07/05 05:27:39;;;;;;;2.13;1.83;;;18.60;99.90;;;;;;5075659;28;20180;-80
2022/07/05 05:30:06;;;;;;;2.75;1.98;;;19.10;99.90;;;;;;5075616;28;20165;-78
2022/07/05 05:32:31;;;;;;;3.95;2.00;;;19.40;99.90;;;;;;5075165;28;20195;-80
2022/07/05 05:34:57;;;;;;;2.25;1.75;;;19.10;99.90;;;;;;5075495;28;20267;-79
2022/07/05 05:37:22;;;;;;;6.20;1.60;;;19.30;99.90;;;;;;5074564;28;20169;-79
2022/07/05 05:39:48;;;;;;;5.35;1.80;;;19.50;99.90;;;;;;5074105;28;20180;-79
2022/07/05 05:42:14;;;;;;;3.33;2.42;;;19.50;99.90;;;;;;5075087;28;20188;-79
2022/07/05 05:44:39;;;;;;;3.03;1.70;;;19.50;99.90;;;;;;5075574;28;20177;-78
2022/07/05 05:47:05;;;;;;;2.55;1.50;;;19.40;99.90;;;;;;5075304;28;20180;-77
2022/07/05 05:49:31;;;;;;;2.38;1.80;;;19.70;99.90;;;;;;5075933;28;20192;-79
2022/07/05 05:51:56;;;;;;;3.17;1.70;;;19.70;99.90;;;;;;5075440;28;20551;-79
2022/07/05 05:54:22;;;;;;;3.00;1.60;;;20.10;99.90;;;;;;5073300;28;20673;-78
2022/07/05 05:56:47;;;;;;;4.47;1.35;;;20.50;99.00;;;;;;5075421;28;20177;-80
2022/07/05 05:59:13;;;;;;;1.88;1.60;;;20.40;98.10;;;;;;5075941;28;20169;-80
2022/07/05 06:01:38;;;;;;;3.25;1.50;;;20.10;98.20;;;;;;5075044;28;20173;-78
2022/07/05 06:04:04;;;;;;;1.23;1.20;;;19.70;99.30;;;;;;5075293;28;20193;-80
2022/07/05 06:06:30;;;;;;;6.63;1.73;;;19.70;99.90;;;;;;5075460;28;20668;-80
2022/07/05 06:08:55;;;;;;;2.63;1.48;;;19.90;99.00;;;;;;5074062;28;20295;-79
2022/07/05 06:11:21;;;;;;;3.25;1.40;;;20.00;98.50;;;;;;5074090;28;20643;-80
2022/07/05 06:13:46;;;;;;;2.47;1.60;;;20.20;97.80;;;;;;5073450;28;20530;-77
2022/07/05 06:16:12;;;;;;;3.85;1.40;;;20.30;97.90;;;;;;5074910;28;20248;-78
2022/07/05 06:18:38;;;;;;;6.95;1.70;;;20.30;97.50;;;;;;5073032;28;20246;-75
2022/07/05 06:21:03;;;;;;;4.70;1.40;;;20.10;98.20;;;;;;5071905;28;20188;-75
2022/07/05 06:23:29;;;;;;;5.03;1.38;;;20.10;97.50;;;;;;5073273;28;20191;-76
2022/07/05 06:25:55;;;;;;;7.13;1.40;;;20.10;98.10;;;;;;5073135;28;20226;-76
2022/07/05 06:28:20;;;;;;;1.75;1.20;;;20.00;98.30;;;;;;5072155;28;20192;-78
2022/07/05 06:30:46;;;;;;;2.05;1.30;;;20.10;97.90;;;;;;5071183;28;20178;-77
2022/07/05 06:33:12;;;;;;;2.15;1.20;;;20.70;97.30;;;;;;5072694;28;20734;-77
2022/07/05 06:35:37;;;;;;;3.55;1.33;;;20.50;97.00;;;;;;5071902;28;20172;-76
2022/07/05 06:38:05;;;;;;;2.38;1.40;;;20.50;96.90;;;;;;5072228;28;20173;-79
2022/07/05 06:40:33;;;;;;;1.35;1.25;;;20.70;96.70;;;;;;5073562;28;20179;-77
2022/07/05 06:43:01;;;;;;;1.67;1.50;;;20.50;96.30;;;;;;5072549;28;20207;-78
2022/07/05 06:45:27;;;;;;;1.40;1.30;;;20.50;96.70;;;;;;5072478;28;20613;-78
2022/07/05 06:47:56;;;;;;;1.92;1.65;;;20.50;95.70;;;;;;5072507;28;20181;-77
2022/07/05 06:50:22;;;;;;;4.63;1.75;;;20.50;96.00;;;;;;5071678;28;20245;-76
2022/07/05 06:52:47;;;;;;;2.40;1.50;;;20.90;96.10;;;;;;5072678;28;20672;-78
2022/07/05 06:55:13;;;;;;;3.13;1.63;;;20.60;95.90;;;;;;5071676;28;20165;-78
2022/07/05 06:57:39;;;;;;;3.33;1.50;;;20.50;96.70;;;;;;5071721;28;20165;-76
2022/07/05 07:00:05;;;;;;;2.08;1.52;;;20.40;96.20;;;;;;5071758;28;20268;-77
2022/07/05 07:02:31;;;;;;;2.65;1.48;;;20.30;95.40;;;;;;5071719;28;20264;-78
2022/07/05 07:04:57;;;;;;;3.20;1.85;;;20.40;96.30;;;;;;5071859;28;20260;-76
2022/07/05 07:10:07;;;;;;;3.85;1.20;;;20.50;95.90;;;;;;5073702;28;20211;-77
2022/07/05 07:12:32;;;;;;;1.60;1.40;;;20.50;96.00;;;;;;5071720;28;20216;-79
2022/07/05 07:14:58;;;;;;;2.33;1.50;;;20.60;95.40;;;;;;5072905;28;20180;-77
2022/07/05 07:17:24;;;;;;;1.70;1.60;;;20.80;95.50;;;;;;5071904;28;20169;-79
2022/07/05 07:19:50;;;;;;;1.67;1.40;;;21.50;94.40;;;;;;5072038;28;20269;-77
2022/07/05 07:22:16;;;;;;;2.78;1.48;;;22.00;93.40;;;;;;5070451;28;20279;-79
2022/07/05 07:24:41;;;;;;;3.00;1.63;;;21.80;93.90;;;;;;5070756;28;20176;-77
2022/07/05 07:27:08;;;;;;;4.22;1.35;;;21.60;93.80;;;;;;5071266;28;20173;-79
2022/07/05 07:29:38;;;;;;;3.00;1.45;;;21.90;93.60;;;;;;5071919;28;20834;-78
2022/07/05 07:32:06;;;;;;;2.30;1.30;;;22.40;92.70;;;;;;5072314;28;20168;-78
2022/07/05 07:34:32;;;;;;;4.50;1.50;;;22.20;92.00;;;;;;5074470;28;20169;-77
2022/07/05 07:36:58;;;;;;;4.82;1.55;;;22.70;92.00;;;;;;5072045;28;20249;-77
2022/07/05 07:39:26;;;;;;;4.78;1.38;;;22.40;92.60;;;;;;5072985;28;20176;-78
2022/07/05 07:41:52;;;;;;;3.55;1.10;;;22.50;91.10;;;;;;5072798;28;20618;-75
2022/07/05 07:44:18;;;;;;;3.72;1.30;;;22.20;91.90;;;;;;5071681;28;20228;-78
2022/07/05 07:46:44;;;;;;;1.55;1.23;;;22.20;91.20;;;;;;5070678;28;20172;-77
2022/07/05 07:49:13;;;;;;;2.92;0.95;;;22.00;91.40;;;;;;5071316;28;20642;-76
2022/07/05 07:51:40;;;;;;;3.72;1.40;;;22.20;92.10;;;;;;5071679;28;20169;-76
2022/07/05 07:54:06;;;;;;;2.38;1.30;;;22.30;91.10;;;;;;5072493;28;20283;-78
2022/07/05 07:56:32;;;;;;;2.22;1.10;;;22.60;90.80;;;;;;5071832;28;20555;-78
2022/07/05 07:58:57;;;;;;;1.65;1.00;;;23.10;88.00;;;;;;5072520;28;20168;-79
2022/07/05 08:01:23;;;;;;;3.72;1.27;;;23.00;88.30;;;;;;5072693;28;20183;-79
2022/07/05 08:03:49;;;;;;;3.90;1.13;;;22.90;85.10;;;;;;5071430;28;20192;-77
2022/07/05 08:06:15;;;;;;;1.20;1.02;;;23.50;85.70;;;;;;5071855;28;20229;-79
2022/07/05 08:08:44;;;;;;;4.50;1.30;;;23.40;85.20;;;;;;5071803;28;20661;-79
2022/07/05 08:11:11;;;;;;;2.33;1.13;;;23.50;82.00;;;;;;5072218;28;20567;-78
2022/07/05 08:13:37;;;;;;;3.05;1.52;;;23.80;85.30;;;;;;5071470;28;20216;-78
2022/07/05 08:16:03;;;;;;;1.85;0.90;;;24.30;78.70;;;;;;5071328;28;20161;-78
2022/07/05 08:21:35;;;;;;;1.88;0.82;;;23.90;80.90;;;;;;5078928;28;20249;-79
2022/07/05 08:24:06;;;;;;;2.58;1.00;;;24.70;78.50;;;;;;5075564;28;20228;-77
2022/07/05 08:26:33;;;;;;;1.85;0.93;;;24.20;79.10;;;;;;5075744;28;20177;-78
2022/07/05 08:29:03;;;;;;;1.60;1.27;;;24.10;79.60;;;;;;5075928;28;20196;-78
2022/07/05 08:31:32;;;;;;;3.53;0.80;;;23.60;79.20;;;;;;5076144;28;20225;-78
2022/07/05 08:33:58;;;;;;;0.70;0.70;;;23.70;78.50;;;;;;5075089;28;20238;-77
2022/07/05 08:36:24;;;;;;;0.90;0.90;;;24.20;75.30;;;;;;5076015;28;20172;-77
2022/07/05 08:38:50;;;;;;;1.10;0.90;;;24.60;77.10;;;;;;5075103;28;20229;-79
2022/07/05 08:41:19;;;;;;;3.53;1.00;;;24.40;75.80;;;;;;5074854;28;20223;-79
2022/07/05 08:43:46;;;;;;;3.75;0.90;;;24.30;76.10;;;;;;5075583;28;20192;-79
2022/07/05 08:46:15;;;;;;;1.45;1.13;;;24.80;78.20;;;;;;5076289;28;20199;-79
2022/07/05 08:48:43;;;;;;;0.90;0.90;;;25.20;74.60;;;;;;5076614;28;20200;-79
2022/07/05 08:51:16;;;;;;;1.50;1.17;;;25.20;75.50;;;;;;5076186;28;20260;-79
2022/07/05 08:53:43;;;;;;;1.73;1.10;;;25.60;76.30;;;;;;5075238;28;20665;-80
2022/07/05 08:56:10;;;;;;;1.35;1.00;;;25.30;73.60;;;;;;5074514;28;20695;-79
2022/07/05 08:58:36;;;;;;;3.13;1.08;;;25.00;75.50;;;;;;5076746;28;20215;-80
2022/07/05 09:01:03;;;;;;;1.88;1.00;;;25.70;75.70;;;;;;5075933;28;20172;-80
2022/07/05 09:03:36;;;;;;;3.30;1.10;;;25.80;73.60;;;;;;5074990;28;20564;-78
2022/07/05 09:06:03;;;;;;;2.55;1.05;;;24.90;74.50;;;;;;5075524;28;20177;-80
2022/07/05 09:08:38;;;;;;;1.17;1.10;;;24.00;74.50;;;;;;5076232;28;20188;-79
2022/07/05 09:11:10;;;;;;;2.50;1.05;;;24.10;76.40;;;;;;5076728;28;20634;-80
2022/07/05 09:13:38;;;;;;;2.15;1.60;;;24.50;77.00;;;;;;5075086;28;20189;-79
2022/07/05 09:16:05;;;;;;;2.03;1.05;;;24.10;76.40;;;;;;5076177;28;20193;-79
2022/07/05 09:18:44;;;;;;;2.00;1.25;;;24.50;76.10;;;;;;5076410;28;20589;-79
2022/07/05 09:21:23;;;;;;;1.58;1.20;;;23.90;76.40;;;;;;5074717;28;20208;-80
2022/07/05 09:24:07;;;;;;;1.50;0.95;;;24.20;77.60;;;;;;5075585;28;20227;-79
2022/07/05 09:26:38;;;;;;;4.50;1.20;;;24.70;75.10;;;;;;5075615;28;20180;-79
2022/07/05 09:29:24;;;;;;;3.58;1.00;;;24.70;76.00;;;;;;5076694;28;20822;-79
2022/07/05 09:31:51;;;;;;;1.05;0.95;;;24.70;75.90;;;;;;5073850;28;20275;-79
2022/07/05 09:34:18;;;;;;;1.50;1.15;;;23.70;76.20;;;;;;5076001;28;20924;-78
2022/07/05 09:37:03;;;;;;;1.45;1.08;;;24.80;74.70;;;;;;5075242;28;20172;-78
2022/07/05 09:39:29;;;;;;;2.25;1.10;;;25.40;76.10;;;;;;5074689;28;20255;-79
2022/07/05 09:42:14;;;;;;;1.67;1.15;;;26.30;74.60;;;;;;5075131;28;20211;-79
2022/07/05 09:44:45;;;;;;;1.15;1.05;;;26.00;71.30;;;;;;5074710;28;20606;-77
2022/07/05 09:47:13;;;;;;;3.33;1.40;;;25.10;74.00;;;;;;5075152;28;20200;-79
2022/07/05 09:49:46;;;;;;;3.25;1.10;;;25.10;74.00;;;;;;5074361;28;20199;-78
2022/07/05 09:52:34;;;;;;;1.85;1.15;;;24.60;74.20;;;;;;5074113;28;20175;-77
2022/07/05 09:55:07;;;;;;;1.38;0.98;;;24.60;74.50;;;;;;5074852;28;20172;-80
2022/07/05 09:57:34;;;;;;;2.25;1.13;;;24.60;74.50;;;;;;5073570;28;20257;-78
2022/07/05 10:00:05;;;;;;;2.67;1.30;;;24.00;76.60;;;;;;5074426;28;20185;-79
2022/07/05 10:02:35;;;;;;;1.00;1.00;;;23.70;76.90;;;;;;5074810;28;20199;-79
2022/07/05 10:05:23;;;;;;;1.52;1.10;;;23.90;75.80;;;;;;5074147;28;20226;-80
2022/07/05 10:07:50;;;;;;;2.05;1.17;;;24.10;75.50;;;;;;5074639;28;20168;-78
2022/07/05 10:10:18;;;;;;;1.08;1.08;;;24.10;74.50;;;;;;5074641;28;20551;-77
2022/07/05 10:12:45;;;;;;;2.33;1.27;;;24.30;75.20;;;;;;5073396;28;20772;-78
2022/07/05 10:15:13;;;;;;;1.40;1.30;;;24.40;75.30;;;;;;5074303;28;20191;-77
2022/07/05 10:17:53;;;;;;;1.20;1.20;;;24.10;75.30;;;;;;5073602;28;20222;-76
2022/07/05 10:20:45;;;;;;;4.80;1.33;;;23.60;75.20;;;;;;5075382;28;20496;-76
2022/07/05 10:23:16;;;;;;;2.08;1.17;;;23.50;76.00;;;;;;5068948;28;20231;-79
2022/07/05 10:25:48;;;;;;;1.40;1.30;;;24.60;75.00;;;;;;5073771;28;20298;-79
2022/07/05 10:28:15;;;;;;;3.63;1.17;;;24.80;75.50;;;;;;5073555;28;20200;-77
2022/07/05 10:30:44;;;;;;;2.95;1.20;;;25.30;74.00;;;;;;5073407;28;20241;-76
2022/07/05 10:33:10;;;;;;;1.30;1.20;;;24.20;75.30;;;;;;5073155;28;20206;-77
2022/07/05 10:35:36;;;;;;;4.82;1.60;;;24.00;74.70;;;;;;5073253;28;20168;-77
2022/07/05 10:38:03;;;;;;;4.38;1.30;;;23.90;74.50;;;;;;5072328;28;20184;-78
2022/07/05 10:40:31;;;;;;;1.30;1.20;;;23.90;75.00;;;;;;5071965;28;20172;-77
2022/07/05 10:43:01;;;;;;;1.20;1.10;;;23.60;75.80;;;;;;5073345;28;20189;-79
2022/07/05 10:45:34;;;;;;;3.22;1.20;;;24.60;76.20;;;;;;5070818;28;20648;-79
2022/07/05 10:48:12;;;;;;;1.00;1.00;;;24.80;74.00;;;;;;5072492;28;20252;-79
2022/07/05 10:51:07;;;;;;;1.38;1.27;;;25.90;75.10;;;;;;5072667;28;20192;-79
2022/07/05 10:53:36;;;;;;;2.10;1.20;;;26.20;73.50;;;;;;5069352;28;20230;-78
2022/07/05 10:56:05;;;;;;;3.80;1.30;;;25.50;74.00;;;;;;5072215;28;20211;-79
2022/07/05 10:58:37;;;;;;;2.88;1.33;;;24.70;73.50;;;;;;5071754;28;20183;-77
2022/07/05 11:01:28;;;;;;;6.82;1.38;;;24.20;74.90;;;;;;5071822;28;20180;-78
2022/07/05 11:04:01;;;;;;;2.80;1.40;;;24.20;75.60;;;;;;5062674;28;20251;-78
2022/07/05 11:06:38;;;;;;;1.77;1.20;;;24.50;76.00;;;;;;5072441;28;20255;-79
2022/07/05 11:09:05;;;;;;;2.17;1.27;;;24.10;74.60;;;;;;5073412;28;20192;-80
2022/07/05 11:11:31;;;;;;;1.55;1.23;;;24.60;75.30;;;;;;5072365;28;20168;-81
2022/07/05 11:13:59;;;;;;;1.45;1.20;;;24.90;75.50;;;;;;5072304;28;20853;-80
2022/07/05 11:16:37;;;;;;;4.47;1.30;;;25.90;74.50;;;;;;5072271;23;20599;-81
2022/07/05 11:19:09;;;;;;;3.75;1.17;;;25.50;72.70;;;;;;5081276;22;20212;-79
2022/07/05 11:22:05;;;;;;;3.03;1.42;;;24.90;74.00;;;;;;5072577;28;20263;-81
2022/07/05 11:24:35;;;;;;;2.28;1.70;;;24.20;74.40;;;;;;5043843;28;20293;-79
2022/07/05 11:27:03;;;;;;;3.10;1.60;;;24.20;74.00;;;;;;5053671;28;20170;-79
2022/07/05 11:29:42;;;;;;;1.77;1.10;;;25.20;74.80;;;;;;5052112;28;20688;-79
2022/07/05 11:32:09;;;;;;;5.05;2.10;;;26.30;73.00;;;;;;5051814;28;20208;-78
2022/07/05 11:34:36;;;;;;;4.07;1.50;;;26.40;73.30;;;;;;5052573;28;20174;-80
2022/07/05 11:37:14;;;;;;;1.67;1.30;;;26.00;73.40;;;;;;5052398;28;20208;-80
2022/07/05 11:39:41;;;;;;;2.40;1.17;;;25.60;72.50;;;;;;5052261;28;20208;-80
2022/07/05 11:42:10;;;;;;;1.67;1.40;;;24.70;73.70;;;;;;5057723;28;20173;-81
2022/07/05 11:44:40;;;;;;;2.15;1.48;;;24.70;75.10;;;;;;5059529;28;20177;-81
2022/07/05 11:47:06;;;;;;;1.63;1.23;;;24.40;74.80;;;;;;5060204;28;20272;-81
2022/07/05 11:49:32;;;;;;;4.35;1.40;;;24.20;73.20;;;;;;5059923;28;20648;-81
2022/07/05 11:52:01;;;;;;;1.27;1.10;;;24.40;74.60;;;;;;5059596;28;20193;-81
2022/07/05 11:54:31;;;;;;;1.00;1.00;;;24.70;74.50;;;;;;5060860;28;20201;-82
2022/07/05 11:56:58;;;;;;;1.45;1.35;;;25.30;75.10;;;;;;5065532;28;20584;-81
2022/07/05 11:59:25;;;;;;;2.90;1.30;;;26.10;72.80;;;;;;5061617;28;20226;-82
2022/07/05 12:01:52;;;;;;;2.35;1.40;;;25.60;73.30;;;;;;5066582;28;20184;-81
2022/07/05 12:04:29;;;;;;;3.25;1.20;;;25.60;74.70;;;;;;5066119;28;20197;-81
2022/07/05 12:06:55;;;;;;;1.38;1.10;;;25.30;74.00;;;;;;5067382;28;20168;-80
2022/07/05 12:15:06;;;;;;;3.25;1.30;;;24.50;75.30;;;;;;5067599;28;20157;-82
2022/07/05 12:17:34;;;;;;;6.45;1.33;;;24.70;76.00;;;;;;5066164;28;20242;-80
2022/07/05 12:19:59;;;;;;;5.55;1.40;;;24.70;76.30;;;;;;5066363;28;20276;-80
2022/07/05 12:22:30;;;;;;;2.55;1.20;;;24.50;73.70;;;;;;5066372;28;20181;-82
2022/07/05 12:24:58;;;;;;;1.27;1.13;;;25.10;76.90;;;;;;5067281;28;20177;-82
2022/07/05 12:27:24;;;;;;;1.30;1.20;;;25.10;75.50;;;;;;5066498;28;20176;-82
2022/07/05 12:29:50;;;;;;;1.10;1.10;;;25.20;73.40;;;;;;5065782;28;20200;-83
2022/07/05 12:32:16;;;;;;;1.42;1.17;;;25.20;74.40;;;;;;5066426;28;20161;-82
2022/07/05 12:34:42;;;;;;;2.40;1.20;;;25.30;73.90;;;;;;5068944;28;20530;-82
2022/07/05 12:37:08;;;;;;;1.42;1.20;;;25.40;73.60;;;;;;5068312;28;20188;-82
2022/07/05 12:39:34;;;;;;;1.77;1.15;;;25.50;75.00;;;;;;5068101;28;20170;-80
2022/07/05 12:42:00;;;;;;;1.45;1.17;;;25.30;73.00;;;;;;5067367;28;20642;-81
2022/07/05 12:44:26;;;;;;;4.22;1.38;;;24.70;73.60;;;;;;5067601;28;20193;-81
2022/07/05 12:46:52;;;;;;;3.97;1.30;;;24.30;74.50;;;;;;5063158;28;20187;-80
2022/07/05 12:49:18;;;;;;;1.50;1.20;;;24.10;75.00;;;;;;5066694;28;20216;-81
2022/07/05 12:51:45;;;;;;;1.27;1.10;;;24.30;75.40;;;;;;5061017;28;20169;-79
2022/07/05 13:00:22;;;;;;;1.52;1.40;;;24.20;74.30;;;;;;5060337;28;20180;-79
2022/07/05 13:02:49;;;;;;;10.55;1.50;;;24.00;75.00;;;;;;5041174;28;20201;-84
2022/07/05 13:05:23;;;;;;;2.70;1.30;;;24.10;75.30;;;;;;5056428;28;20192;-85
2022/07/05 13:07:54;;;;;;;3.53;1.40;;;24.70;74.10;;;;;;5056697;28;20161;-83